Time;durP1;ratioP1;P1;durP2;ratioP2;P2;SDS_P1;SDS_P2;PMS_P1;PMS_P2;Temp;Humidity;BMP_temperature;BMP_pressure;BME280_temperature;BME280_humidity;BME280_pressure;Samples;Min_cycle;Max_cycle;Signal;HPM_P1;HPM_P2
2022/03/02 00:00:12;;;;;;;40.92;18.13;;;;;;;0.80;57.24;100020.94;5155473;28;20417;-67
2022/03/02 00:03:02;;;;;;;53.90;22.08;;;;;;;0.50;59.24;100022.91;5159798;28;20054;-67
2022/03/02 00:05:52;;;;;;;45.97;20.65;;;;;;;0.48;58.52;100011.66;5159855;28;20160;-67
2022/03/02 00:08:43;;;;;;;44.95;21.52;;;;;;;0.68;59.13;100018.75;5160558;28;20061;-68
2022/03/02 00:11:33;;;;;;;46.45;20.88;;;;;;;0.55;59.07;100007.91;5159343;28;20129;-68
2022/03/02 00:14:23;;;;;;;42.80;19.98;;;;;;;0.67;58.41;99993.59;5159551;28;20513;-67
2022/03/02 00:17:13;;;;;;;38.33;18.90;;;;;;;1.13;57.50;100004.91;5159768;28;20125;-68
2022/03/02 00:20:06;;;;;;;35.95;18.45;;;;;;;1.38;56.63;99986.47;5159779;28;20116;-69
2022/03/02 00:22:56;;;;;;;35.45;17.10;;;;;;;1.06;56.03;99987.72;5159707;28;20053;-67
2022/03/02 00:25:46;;;;;;;37.97;16.67;;;;;;;0.64;58.03;99991.09;5159374;28;20193;-67
2022/03/02 00:28:41;;;;;;;35.25;17.25;;;;;;;0.76;56.00;99977.56;5159773;28;20057;-68
2022/03/02 00:31:32;;;;;;;35.00;15.85;;;;;;;0.86;56.16;99978.06;5155825;28;20553;-68
2022/03/02 00:34:22;;;;;;;35.53;16.90;;;;;;;0.74;55.90;99974.16;5159847;28;20061;-66
2022/03/02 00:37:13;;;;;;;32.22;16.42;;;;;;;0.86;57.06;99994.59;5158670;28;20092;-68
2022/03/02 00:40:04;;;;;;;33.10;16.85;;;;;;;0.88;57.37;99997.97;5158645;28;20057;-69
2022/03/02 00:42:55;;;;;;;42.60;18.23;;;;;;;0.95;56.76;99996.00;5157352;28;20677;-68
2022/03/02 00:45:45;;;;;;;38.75;17.70;;;;;;;1.01;57.33;99997.53;5164999;28;20663;-69
2022/03/02 00:48:35;;;;;;;34.78;17.38;;;;;;;1.09;57.38;99998.94;5163977;28;20066;-68
2022/03/02 00:51:27;;;;;;;36.13;17.67;;;;;;;0.82;56.93;99963.41;5164715;28;20381;-68
2022/03/02 00:54:17;;;;;;;36.30;17.17;;;;;;;1.15;56.90;99979.53;5164924;28;20061;-67
2022/03/02 00:57:06;;;;;;;31.77;16.38;;;;;;;1.04;56.55;99981.75;5164464;28;20420;-68
2022/03/02 00:59:57;;;;;;;35.65;17.48;;;;;;;0.99;57.17;99954.94;5164653;28;20050;-68
2022/03/02 01:02:47;;;;;;;35.38;17.33;;;;;;;1.10;56.93;99968.44;5164248;28;20152;-69
2022/03/02 01:05:39;;;;;;;39.70;17.73;;;;;;;1.20;57.21;99961.09;5144425;28;20430;-68
2022/03/02 01:08:29;;;;;;;38.70;18.35;;;;;;;1.08;57.23;99980.69;5164534;28;20073;-68
2022/03/02 01:11:19;;;;;;;37.25;18.45;;;;;;;1.06;58.07;99967.72;5161981;28;20073;-67
2022/03/02 01:14:09;;;;;;;41.78;17.15;;;;;;;1.29;58.64;99973.75;5162429;28;20636;-68
2022/03/02 01:16:59;;;;;;;35.10;17.67;;;;;;;1.29;58.55;99974.66;5164850;28;20501;-68
2022/03/02 01:19:49;;;;;;;34.42;18.15;;;;;;;1.46;57.69;99966.13;5164401;28;20504;-67
2022/03/02 01:22:40;;;;;;;35.13;17.00;;;;;;;1.09;58.02;99957.16;5162788;28;20054;-68
2022/03/02 01:25:30;;;;;;;38.75;16.42;;;;;;;1.11;57.32;99957.91;5164202;28;20050;-67
2022/03/02 01:28:21;;;;;;;35.80;15.80;;;;;;;1.24;56.71;99945.22;5149742;28;20046;-69
2022/03/02 01:31:12;;;;;;;32.20;16.27;;;;;;;1.13;57.04;99948.28;5160447;28;20081;-69
2022/03/02 01:34:02;;;;;;;30.38;15.60;;;;;;;1.25;56.93;99957.38;5163846;28;20057;-69
2022/03/02 01:36:53;;;;;;;33.83;16.08;;;;;;;1.28;56.98;99946.78;5163740;28;20083;-69
2022/03/02 01:39:43;;;;;;;31.38;15.43;;;;;;;1.47;55.70;99941.69;5163103;28;20152;-69
2022/03/02 01:42:33;;;;;;;30.55;15.20;;;;;;;1.44;56.36;99940.97;5163717;28;20053;-70
2022/03/02 01:45:24;;;;;;;31.52;15.23;;;;;;;1.05;56.39;99905.06;5163926;28;20365;-68
2022/03/02 01:48:14;;;;;;;35.22;15.95;;;;;;;1.17;56.30;99947.22;5162707;28;20113;-68
2022/03/02 01:51:04;;;;;;;27.13;14.75;;;;;;;0.92;55.58;99931.66;5142424;28;20077;-69
2022/03/02 01:53:55;;;;;;;27.73;14.65;;;;;;;1.09;57.25;99936.25;5143622;28;20053;-68
2022/03/02 01:56:45;;;;;;;32.40;16.42;;;;;;;0.94;56.32;99901.13;5142886;28;20055;-69
2022/03/02 01:59:36;;;;;;;39.28;14.95;;;;;;;1.23;55.32;99917.41;5143614;28;20055;-69
2022/03/02 02:02:26;;;;;;;34.38;16.00;;;;;;;1.14;55.86;99907.31;5154108;28;20046;-68
2022/03/02 02:05:17;;;;;;;33.05;15.52;;;;;;;1.22;55.04;99913.06;5162977;28;20425;-69
2022/03/02 02:08:08;;;;;;;35.83;15.60;;;;;;;1.18;56.00;99901.91;5163502;28;20147;-68
2022/03/02 02:10:59;;;;;;;30.90;14.85;;;;;;;0.90;56.18;99904.78;5163302;28;20685;-67
2022/03/02 02:13:49;;;;;;;32.50;15.68;;;;;;;1.06;55.79;99894.59;5162335;28;20069;-68
2022/03/02 02:16:40;;;;;;;35.15;16.85;;;;;;;0.79;56.32;99869.56;5163203;28;20515;-69
2022/03/02 02:19:30;;;;;;;31.35;16.05;;;;;;;0.87;56.11;99852.69;5142899;28;20523;-69
2022/03/02 02:22:20;;;;;;;30.27;15.50;;;;;;;0.73;56.83;99878.50;5143004;28;20062;-70
2022/03/02 02:25:11;;;;;;;33.13;15.98;;;;;;;0.65;56.62;99867.50;5143074;28;20432;-68
2022/03/02 02:28:01;;;;;;;35.67;16.67;;;;;;;0.47;57.68;99854.25;5142384;28;20055;-68
2022/03/02 02:30:54;;;;;;;36.58;16.63;;;;;;;0.39;59.18;99861.50;5141338;28;20137;-67
2022/03/02 02:33:46;;;;;;;33.90;17.23;;;;;;;0.24;59.37;99859.50;5161888;28;20068;-67
2022/03/02 02:36:38;;;;;;;33.17;15.75;;;;;;;0.63;57.59;99848.41;5142566;28;20131;-68
2022/03/02 02:39:28;;;;;;;29.45;14.43;;;;;;;0.68;55.96;99859.53;5142941;28;20058;-68
2022/03/02 02:42:18;;;;;;;31.20;15.10;;;;;;;0.34;56.80;99840.00;5147611;28;20050;-68
2022/03/02 02:45:08;;;;;;;30.30;15.85;;;;;;;0.31;57.83;99824.44;5162519;28;20188;-67
2022/03/02 02:47:58;;;;;;;39.55;16.50;;;;;;;0.27;56.79;99867.22;5162934;28;20061;-69
2022/03/02 02:50:49;;;;;;;33.13;15.73;;;;;;;0.38;56.58;99865.03;5162880;28;20466;-68
2022/03/02 02:53:39;;;;;;;33.10;15.13;;;;;;;0.16;56.90;99870.19;5163115;28;20057;-68
2022/03/02 02:56:29;;;;;;;32.70;15.13;;;;;;;0.30;58.02;99874.06;5162623;28;20061;-67
2022/03/02 02:59:19;;;;;;;34.08;15.77;;;;;;;0.32;58.12;99859.22;5162576;28;20148;-68
2022/03/02 03:02:09;;;;;;;33.20;15.30;;;;;;;0.33;57.03;99871.34;5157731;28;20057;-68
2022/03/02 03:04:59;;;;;;;29.02;14.52;;;;;;;0.46;57.02;99869.97;5161252;28;20046;-68
2022/03/02 03:07:51;;;;;;;33.90;14.75;;;;;;;0.42;56.49;99865.78;5161249;28;20058;-68
2022/03/02 03:10:43;;;;;;;28.70;15.38;;;;;;;0.15;57.20;99872.88;5162512;28;20058;-67
2022/03/02 03:13:33;;;;;;;34.22;14.40;;;;;;;-0.15;56.66;99820.97;5162222;28;20097;-68
2022/03/02 03:16:23;;;;;;;29.13;13.90;;;;;;;0.44;56.03;99859.59;5162363;28;20507;-67
2022/03/02 03:19:13;;;;;;;24.52;13.25;;;;;;;0.31;55.67;99860.97;5162421;28;20136;-67
2022/03/02 03:22:05;;;;;;;25.92;13.07;;;;;;;-0.14;55.93;99827.84;5162342;28;20057;-67
2022/03/02 03:24:55;;;;;;;23.48;12.77;;;;;;;0.14;55.09;99860.75;5162703;28;20105;-68
2022/03/02 03:27:46;;;;;;;28.08;13.02;;;;;;;0.03;55.96;99858.53;5162169;28;20134;-69
2022/03/02 03:30:36;;;;;;;30.15;13.02;;;;;;;0.09;56.57;99862.66;5162246;28;20056;-66
2022/03/02 03:33:27;;;;;;;37.25;13.52;;;;;;;-0.08;55.89;99853.72;5159488;28;20094;-67
2022/03/02 03:36:17;;;;;;;32.17;13.95;;;;;;;-0.14;56.15;99856.53;5161352;28;20152;-67
2022/03/02 03:39:08;;;;;;;30.40;14.30;;;;;;;-0.20;56.78;99867.19;5162067;28;20065;-67
2022/03/02 03:41:58;;;;;;;31.70;14.10;;;;;;;-0.34;56.74;99852.03;5161940;28;20073;-67
2022/03/02 03:44:49;;;;;;;30.95;14.38;;;;;;;-0.30;57.06;99861.47;5161439;28;20130;-67
2022/03/02 03:47:40;;;;;;;29.65;14.70;;;;;;;0.07;56.48;99865.34;5161763;28;20707;-68
2022/03/02 03:50:30;;;;;;;31.55;14.00;;;;;;;0.21;56.36;99862.22;5161476;28;20484;-66
2022/03/02 03:53:21;;;;;;;31.73;15.38;;;;;;;0.53;55.62;99865.34;5162047;28;20133;-66
2022/03/02 03:56:11;;;;;;;29.38;13.70;;;;;;;0.32;55.70;99865.28;5161428;28;20583;-67
2022/03/02 03:59:02;;;;;;;29.58;14.88;;;;;;;0.20;56.64;99866.59;5161948;28;20101;-67
2022/03/02 04:01:52;;;;;;;27.85;14.43;;;;;;;-0.15;56.92;99856.59;5160773;28;20069;-67
2022/03/02 04:04:43;;;;;;;33.78;15.70;;;;;;;-0.14;57.97;99860.91;5158781;28;20105;-67
2022/03/02 04:07:33;;;;;;;30.98;15.32;;;;;;;0.37;56.86;99854.69;5159414;28;20112;-68
2022/03/02 04:10:24;;;;;;;29.02;13.77;;;;;;;0.17;56.23;99855.44;5160915;28;20192;-67
2022/03/02 04:13:15;;;;;;;32.05;14.48;;;;;;;0.16;56.19;99848.50;5160862;28;20073;-68
2022/03/02 04:16:05;;;;;;;30.25;14.65;;;;;;;0.53;55.27;99844.47;5160336;28;20058;-69
2022/03/02 04:18:56;;;;;;;31.67;14.75;;;;;;;0.33;56.81;99825.25;5194511;23;20045;-72
2022/03/02 04:21:46;;;;;;;25.27;13.32;;;;;;;0.15;56.16;99828.56;5185405;28;20053;-71
2022/03/02 04:24:37;;;;;;;30.90;14.25;;;;;;;0.07;56.03;99810.59;5185757;28;20421;-71
2022/03/02 04:27:27;;;;;;;29.52;14.73;;;;;;;-0.25;56.33;99817.00;5184725;28;20061;-71
2022/03/02 04:30:18;;;;;;;28.92;14.15;;;;;;;-0.38;56.36;99813.97;5185792;28;20069;-71
2022/03/02 04:33:08;;;;;;;31.80;14.13;;;;;;;-0.44;57.04;99815.94;5171452;28;20335;-71
2022/03/02 04:35:58;;;;;;;31.40;14.15;;;;;;;-0.47;56.53;99815.13;5181331;28;20108;-71
2022/03/02 04:38:49;;;;;;;28.35;15.18;;;;;;;-0.48;58.02;99816.06;5179068;28;20051;-72
2022/03/02 04:41:39;;;;;;;36.50;16.02;;;;;;;-0.67;58.12;99778.53;5166410;28;20050;-71
2022/03/02 04:44:29;;;;;;;30.55;14.48;;;;;;;-0.55;57.55;99795.50;5178442;28;20194;-71
2022/03/02 04:47:19;;;;;;;29.77;14.20;;;;;;;-0.48;57.88;99808.22;5181909;28;20054;-72
2022/03/02 04:50:11;;;;;;;30.10;14.55;;;;;;;-0.40;57.45;99820.97;5186267;28;20057;-72
2022/03/02 04:53:03;;;;;;;31.15;14.63;;;;;;;-0.53;58.33;99806.69;5186786;28;20050;-72
2022/03/02 04:55:53;;;;;;;29.55;14.40;;;;;;;-0.49;58.26;99816.97;5184289;28;20058;-71
2022/03/02 04:58:43;;;;;;;36.00;15.57;;;;;;;-0.43;58.29;99800.28;5185559;28;20610;-72
2022/03/02 05:01:33;;;;;;;32.67;15.13;;;;;;;-0.41;58.56;99795.00;5183749;28;20060;-72
2022/03/02 05:04:23;;;;;;;33.25;14.98;;;;;;;0.11;57.22;99809.56;5185285;28;20069;-71
2022/03/02 05:07:14;;;;;;;34.08;15.68;;;;;;;-0.03;57.08;99791.00;5175826;28;20069;-71
2022/03/02 05:10:06;;;;;;;34.10;15.57;;;;;;;0.15;56.71;99777.22;5165469;28;20189;-72
2022/03/02 05:12:56;;;;;;;30.80;14.55;;;;;;;0.36;56.41;99801.63;5163818;28;20054;-71
2022/03/02 05:15:46;;;;;;;34.30;14.73;;;;;;;-0.12;57.32;99788.72;5163453;28;20065;-71
2022/03/02 05:18:37;;;;;;;33.50;14.82;;;;;;;-0.48;58.99;99779.56;5166041;28;20053;-70
2022/03/02 05:21:28;;;;;;;28.67;14.50;;;;;;;-0.24;58.21;99792.63;5179373;28;20097;-71
2022/03/02 05:24:17;;;;;;;33.28;14.60;;;;;;;-0.15;58.13;99792.28;5185324;28;20500;-71
2022/03/02 05:27:08;;;;;;;29.40;13.68;;;;;;;0.17;56.01;99782.41;5184924;28;20050;-71
2022/03/02 05:29:59;;;;;;;31.73;14.43;;;;;;;0.09;56.58;99787.06;5184429;28;20101;-71
2022/03/02 05:32:49;;;;;;;34.58;13.77;;;;;;;0.20;55.98;99793.56;5184361;28;20068;-71
2022/03/02 05:35:39;;;;;;;26.73;13.82;;;;;;;0.04;55.86;99792.44;5184422;28;20057;-70
2022/03/02 05:38:29;;;;;;;31.00;13.35;;;;;;;0.03;56.19;99779.47;5171695;28;20543;-72
2022/03/02 05:41:21;;;;;;;30.08;13.85;;;;;;;-0.07;56.05;99789.38;5164563;28;20096;-71
2022/03/02 05:44:12;;;;;;;25.80;13.43;;;;;;;-0.19;56.35;99784.66;5163699;28;20054;-71
2022/03/02 05:47:03;;;;;;;31.40;13.88;;;;;;;-0.33;56.56;99787.72;5163729;28;20539;-72
2022/03/02 05:49:57;;;;;;;29.77;13.35;;;;;;;-0.44;56.83;99776.88;5177384;28;20096;-71
2022/03/02 05:52:48;;;;;;;26.73;14.05;;;;;;;-0.36;57.55;99777.44;5183437;28;20052;-71
2022/03/02 05:55:38;;;;;;;27.58;14.40;;;;;;;-0.18;57.43;99786.34;5210782;28;20052;-71
2022/03/02 05:58:27;;;;;;;29.85;15.30;;;;;;;-0.14;57.55;99785.31;5183933;28;20057;-71
2022/03/02 06:01:18;;;;;;;31.80;14.82;;;;;;;-0.50;58.29;99765.78;5183121;28;20436;-72
2022/03/02 06:04:09;;;;;;;31.27;14.77;;;;;;;-0.31;58.22;99789.38;5209982;28;20073;-72
2022/03/02 06:07:03;;;;;;;31.75;14.55;;;;;;;-0.23;57.86;99786.53;5167441;28;20076;-70
2022/03/02 06:09:53;;;;;;;27.90;13.90;;;;;;;-0.27;57.06;99771.88;5175136;28;20526;-70
2022/03/02 06:12:43;;;;;;;31.92;15.00;;;;;;;-0.10;58.60;99785.16;5183282;28;20046;-71
2022/03/02 06:15:34;;;;;;;29.30;13.85;;;;;;;-0.13;58.17;99787.88;5162002;28;20050;-70
2022/03/02 06:18:25;;;;;;;31.33;14.77;;;;;;;-0.01;58.30;99790.00;5162458;28;20062;-71
2022/03/02 06:21:21;;;;;;;29.05;13.55;;;;;;;-0.03;58.63;99786.63;5176065;28;20204;-70
2022/03/02 06:24:14;;;;;;;30.63;13.98;;;;;;;0.11;57.83;99761.78;5163242;28;20062;-71
2022/03/02 06:27:04;;;;;;;33.00;14.85;;;;;;;0.49;57.32;99769.84;5179156;28;20077;-72
2022/03/02 06:29:54;;;;;;;32.42;14.50;;;;;;;0.68;57.33;99762.97;5196312;28;20559;-72
2022/03/02 06:32:44;;;;;;;34.25;15.18;;;;;;;0.68;57.54;99776.88;5182762;28;20058;-74
2022/03/02 06:35:35;;;;;;;30.50;14.90;;;;;;;0.85;57.60;99785.78;5183813;28;20068;-72
2022/03/02 06:38:25;;;;;;;31.90;14.15;;;;;;;0.96;55.84;99787.94;5174915;28;20065;-74
2022/03/02 06:41:41;;;;;;;26.45;11.90;;;;;;;0.94;54.73;99786.25;5182092;28;20057;-73
2022/03/02 06:44:53;;;;;;;25.60;12.15;;;;;;;0.92;55.45;99787.22;5192594;28;20053;-71
2022/03/02 06:47:53;;;;;;;24.17;12.23;;;;;;;1.27;54.16;99788.34;5203908;28;20053;-72
2022/03/02 06:50:45;;;;;;;28.42;12.55;;;;;;;1.16;54.52;99764.47;5191101;28;20129;-72
2022/03/02 06:53:37;;;;;;;27.88;12.45;;;;;;;1.23;55.28;99785.94;5201813;28;20049;-72
2022/03/02 06:56:31;;;;;;;24.38;12.90;;;;;;;1.11;56.81;99800.34;5178046;28;20680;-71
2022/03/02 06:59:43;;;;;;;24.25;12.18;;;;;;;1.46;55.28;99800.59;5179346;28;20231;-73
2022/03/02 07:02:45;;;;;;;27.10;12.43;;;;;;;1.48;55.45;99799.63;5182678;28;20145;-72
2022/03/02 07:05:37;;;;;;;31.13;14.23;;;;;;;1.63;55.52;99798.13;5182342;28;20435;-71
2022/03/02 07:08:28;;;;;;;29.33;13.07;;;;;;;1.57;55.80;99801.00;5181517;28;20053;-71
2022/03/02 07:11:19;;;;;;;25.83;13.88;;;;;;;1.83;54.79;99792.00;5181397;28;20054;-70
2022/03/02 07:14:12;;;;;;;31.45;14.32;;;;;;;1.82;55.36;99803.34;5206693;28;20554;-70
2022/03/02 07:17:05;;;;;;;33.13;13.73;;;;;;;1.43;55.62;99798.16;5211288;28;20050;-70
2022/03/02 07:19:55;;;;;;;25.83;12.75;;;;;;;1.99;54.15;99794.78;5196327;28;20057;-68
2022/03/02 07:22:52;;;;;;;25.65;13.40;;;;;;;1.54;55.04;99798.53;5182028;28;20132;-69
2022/03/02 07:25:44;;;;;;;23.90;12.43;;;;;;;1.69;54.99;99802.22;5181465;28;20058;-71
2022/03/02 07:28:38;;;;;;;24.15;12.10;;;;;;;1.95;53.25;99780.97;5182878;28;20054;-71
2022/03/02 07:31:28;;;;;;;25.92;12.93;;;;;;;1.98;53.99;99798.28;5193559;28;20053;-70
2022/03/02 07:34:26;;;;;;;25.70;12.50;;;;;;;2.43;51.71;99791.84;5181363;28;20140;-70
2022/03/02 07:37:16;;;;;;;27.17;13.55;;;;;;;2.51;52.20;99794.94;5189139;28;20679;-71
2022/03/02 07:40:07;;;;;;;24.45;11.93;;;;;;;2.05;53.24;99794.47;5181506;28;20716;-70
2022/03/02 07:42:58;;;;;;;28.63;13.02;;;;;;;2.26;52.45;99796.09;5182444;28;20104;-70
2022/03/02 07:45:48;;;;;;;23.70;12.23;;;;;;;2.23;53.06;99783.16;5205486;28;20050;-70
2022/03/02 07:48:39;;;;;;;24.92;12.48;;;;;;;2.61;51.75;99803.19;5182430;28;20064;-69
2022/03/02 07:51:33;;;;;;;23.27;12.00;;;;;;;2.68;51.07;99792.38;5181725;28;20219;-70
2022/03/02 07:54:28;;;;;;;23.52;12.45;;;;;;;2.73;51.54;99800.00;5184350;28;20053;-69
2022/03/02 07:57:19;;;;;;;21.10;12.15;;;;;;;2.81;51.28;99792.59;5185164;28;20518;-70
2022/03/02 08:00:13;;;;;;;35.70;13.07;;;;;;;3.13;49.74;99804.09;5183929;28;20414;-71
2022/03/02 08:03:06;;;;;;;23.42;12.45;;;;;;;2.95;50.82;99800.66;5190281;28;20136;-69
2022/03/02 08:05:59;;;;;;;24.13;12.90;;;;;;;2.81;50.32;99790.84;5182211;28;20183;-69
2022/03/02 08:08:51;;;;;;;24.47;13.03;;;;;;;2.70;51.07;99802.75;5202081;28;20054;-68
2022/03/02 08:11:40;;;;;;;31.80;13.23;;;;;;;3.28;50.03;99811.22;5205416;28;20565;-70
2022/03/02 08:14:32;;;;;;;24.02;12.88;;;;;;;3.29;48.66;99796.31;5165890;28;20208;-68
2022/03/02 08:17:22;;;;;;;27.52;14.05;;;;;;;3.30;49.79;99780.50;5164053;28;20205;-67
2022/03/02 08:20:13;;;;;;;26.77;13.55;;;;;;;3.40;50.84;99803.63;5167773;28;20204;-69
2022/03/02 08:23:06;;;;;;;25.65;13.52;;;;;;;3.40;49.45;99795.78;5192757;28;20110;-68
2022/03/02 08:25:56;;;;;;;26.13;12.30;;;;;;;3.48;49.39;99777.88;5197326;28;20053;-68
2022/03/02 08:28:54;;;;;;;24.52;13.18;;;;;;;3.57;50.13;99793.13;5180327;28;20053;-69
2022/03/02 08:31:47;;;;;;;30.98;12.75;;;;;;;3.72;49.15;99794.94;5174955;28;20129;-68
2022/03/02 08:34:42;;;;;;;33.95;12.80;;;;;;;3.72;48.55;99797.56;5183316;28;20050;-69
2022/03/02 08:37:32;;;;;;;26.13;12.68;;;;;;;3.80;50.48;99801.56;5164802;28;20500;-70
2022/03/02 08:40:22;;;;;;;22.00;11.45;;;;;;;4.15;48.14;99792.66;5164630;28;20056;-69
2022/03/02 08:43:15;;;;;;;21.65;11.77;;;;;;;4.02;48.38;99778.50;5165178;28;20094;-69
2022/03/02 08:46:07;;;;;;;21.48;11.18;;;;;;;4.42;46.66;99787.66;5172327;28;20042;-69
2022/03/02 08:48:57;;;;;;;22.20;11.65;;;;;;;4.41;47.40;99775.47;5183657;28;20054;-70
2022/03/02 08:51:50;;;;;;;21.75;11.35;;;;;;;5.14;45.24;99775.66;5178246;28;20049;-71
2022/03/02 08:54:45;;;;;;;22.90;11.32;;;;;;;5.07;46.51;99776.94;5179461;28;20042;-69
2022/03/02 08:57:45;;;;;;;25.05;12.57;;;;;;;5.24;46.29;99760.16;5174835;28;20054;-70
2022/03/02 09:00:36;;;;;;;22.27;11.38;;;;;;;4.88;46.04;99758.75;5196519;28;20108;-70
2022/03/02 09:03:31;;;;;;;33.65;12.23;;;;;;;5.08;45.63;99759.38;5184192;28;20077;-70
2022/03/02 09:06:25;;;;;;;27.02;12.05;;;;;;;5.49;45.03;99759.53;5189843;28;20069;-70
2022/03/02 09:09:16;;;;;;;26.63;12.52;;;;;;;5.75;46.04;99751.84;5184563;28;20058;-68
2022/03/02 09:12:10;;;;;;;30.83;12.13;;;;;;;6.16;44.46;99737.88;5179201;28;20046;-69
2022/03/02 09:15:00;;;;;;;25.20;12.55;;;;;;;6.22;44.27;99769.09;5167792;28;20054;-69
2022/03/02 09:17:50;;;;;;;25.95;11.73;;;;;;;6.27;43.82;99767.88;5161653;28;20046;-70
2022/03/02 09:20:42;;;;;;;27.48;11.63;;;;;;;6.11;43.64;99751.34;5169939;28;20060;-70
2022/03/02 09:23:34;;;;;;;20.00;11.38;;;;;;;6.01;44.17;99751.09;5183521;28;20068;-69
2022/03/02 09:26:26;;;;;;;19.90;11.45;;;;;;;6.13;43.08;99727.59;5183788;28;20088;-69
2022/03/02 09:29:17;;;;;;;23.30;12.23;;;;;;;6.40;43.54;99743.41;5183376;28;20115;-69
2022/03/02 09:32:10;;;;;;;21.80;11.52;;;;;;;6.59;42.30;99754.44;5183824;28;20535;-68
2022/03/02 09:35:02;;;;;;;27.15;12.82;;;;;;;6.76;43.21;99759.44;5183735;28;20046;-68
2022/03/02 09:37:54;;;;;;;25.52;12.02;;;;;;;6.88;43.33;99755.13;5182844;28;20184;-68
2022/03/02 09:40:49;;;;;;;19.13;10.95;;;;;;;7.21;41.22;99759.09;5183698;28;20088;-68
2022/03/02 09:43:42;;;;;;;42.25;12.35;;;;;;;7.23;40.87;99758.06;5183351;28;20125;-68
2022/03/02 09:46:35;;;;;;;17.30;10.48;;;;;;;6.72;41.28;99763.22;5183956;28;20046;-66
2022/03/02 09:49:29;;;;;;;19.48;11.13;;;;;;;6.97;40.93;99756.31;5182916;28;20057;-67
2022/03/02 09:52:22;;;;;;;20.60;10.75;;;;;;;6.84;40.76;99751.03;5184029;28;20057;-67
2022/03/02 09:55:21;;;;;;;24.23;10.70;;;;;;;6.94;40.22;99740.72;5183478;28;20151;-69
2022/03/02 09:58:14;;;;;;;20.45;11.32;;;;;;;6.56;41.38;99742.31;5183604;28;20061;-67
2022/03/02 10:01:13;;;;;;;21.52;10.30;;;;;;;6.92;41.15;99743.47;5183615;28;20049;-67
2022/03/02 10:04:13;;;;;;;22.23;11.13;;;;;;;7.47;38.65;99744.13;5183301;28;20053;-67
2022/03/02 10:07:41;;;;;;;22.05;11.88;;;;;;;7.28;40.44;99718.16;5183248;28;20466;-67
2022/03/02 10:10:25;;;;;;;18.90;11.10;;;;;;;7.21;39.50;99740.63;5183189;28;20057;-68
2022/03/02 10:13:16;;;;;;;22.80;11.50;;;;;;;7.63;38.72;99741.28;5183124;28;20057;-67
2022/03/02 10:16:09;;;;;;;21.23;10.77;;;;;;;9.40;36.61;99722.13;5182209;28;20089;-67
2022/03/02 10:19:02;;;;;;;22.23;11.27;;;;;;;10.04;36.26;99734.78;5183013;28;20073;-66
2022/03/02 10:22:04;;;;;;;23.15;11.57;;;;;;;9.03;36.16;99726.75;5182441;28;20510;-67
2022/03/02 10:25:02;;;;;;;17.10;10.50;;;;;;;9.30;36.44;99726.44;5183204;28;20053;-66
2022/03/02 10:28:07;;;;;;;17.85;11.25;;;;;;;9.55;36.36;99723.59;5183252;28;20065;-68
2022/03/02 10:31:27;;;;;;;18.02;11.15;;;;;;;9.54;38.61;99719.25;5168861;28;20546;-67
2022/03/02 10:34:32;;;;;;;27.48;12.18;;;;;;;9.07;35.55;99733.47;5184148;23;20523;-65
2022/03/02 10:37:28;;;;;;;22.60;11.10;;;;;;;9.62;34.95;99718.66;5182041;28;20087;-65
2022/03/02 10:40:24;;;;;;;18.48;11.02;;;;;;;8.98;36.29;99720.97;5178180;28;20128;-66
2022/03/02 10:43:20;;;;;;;20.30;10.52;;;;;;;8.89;35.72;99715.41;5159824;28;20090;-65
2022/03/02 10:46:18;;;;;;;18.75;10.55;;;;;;;8.50;35.66;99721.00;5147394;28;20168;-66
2022/03/02 10:49:19;;;;;;;19.88;11.90;;;;;;;8.53;35.67;99710.22;5160625;28;20073;-67
2022/03/02 10:52:14;;;;;;;20.83;11.88;;;;;;;8.62;35.98;99706.91;5161818;28;20093;-67
2022/03/02 10:55:07;;;;;;;21.33;10.75;;;;;;;8.76;36.31;99695.28;5162011;28;20129;-66
2022/03/02 10:58:01;;;;;;;21.23;11.52;;;;;;;8.84;36.96;99709.63;5161560;28;20125;-65
2022/03/02 11:00:51;;;;;;;31.85;13.32;;;;;;;8.80;37.19;99708.16;5161906;28;20472;-68
2022/03/02 11:03:42;;;;;;;22.20;12.00;;;;;;;8.81;37.08;99701.94;5161965;28;20105;-67
2022/03/02 11:06:32;;;;;;;27.85;12.60;;;;;;;9.23;38.24;99696.97;5161091;28;20087;-67
2022/03/02 11:09:25;;;;;;;31.10;15.82;;;;;;;8.93;36.36;99697.50;5162117;28;20540;-67
2022/03/02 11:12:20;;;;;;;23.75;13.23;;;;;;;8.76;36.29;99674.13;5160504;28;20167;-67
2022/03/02 11:15:12;;;;;;;28.52;12.23;;;;;;;8.48;37.47;99681.50;5162006;28;20422;-68
2022/03/02 11:18:02;;;;;;;20.33;11.45;;;;;;;8.93;38.34;99684.28;5160276;28;20061;-66
2022/03/02 11:21:03;;;;;;;32.58;16.85;;;;;;;9.07;35.26;99662.06;5161629;28;20072;-67
2022/03/02 11:23:56;;;;;;;22.13;11.70;;;;;;;9.22;37.63;99668.81;5160929;28;20054;-67
2022/03/02 11:26:48;;;;;;;36.47;16.23;;;;;;;8.86;37.04;99669.84;5160806;28;20496;-67
2022/03/02 11:29:41;;;;;;;30.67;14.25;;;;;;;9.03;35.57;99665.91;5162230;28;20135;-67
2022/03/02 11:32:33;;;;;;;20.10;10.35;;;;;;;9.32;34.68;99669.78;5160846;28;20736;-68
2022/03/02 11:35:23;;;;;;;23.38;11.23;;;;;;;9.04;34.74;99670.22;5160263;28;20127;-68
2022/03/02 11:38:19;;;;;;;17.90;10.55;;;;;;;8.21;35.89;99660.53;5161564;28;20054;-66
2022/03/02 11:41:12;;;;;;;25.48;13.05;;;;;;;9.17;36.44;99647.16;5161532;28;20424;-66
2022/03/02 11:44:05;;;;;;;38.60;17.50;;;;;;;9.00;35.38;99652.91;5161581;28;20531;-67
2022/03/02 11:46:59;;;;;;;24.65;11.32;;;;;;;9.74;35.05;99648.84;5161262;28;20050;-67
2022/03/02 11:49:51;;;;;;;20.50;11.38;;;;;;;9.64;37.74;99651.38;5161878;28;20139;-67
2022/03/02 11:52:46;;;;;;;21.02;10.73;;;;;;;9.89;36.33;99647.59;5161878;28;20064;-68
2022/03/02 11:55:37;;;;;;;22.95;11.18;;;;;;;9.47;35.55;99649.25;5150991;28;20189;-68
2022/03/02 11:58:47;;;;;;;17.10;10.05;;;;;;;8.89;35.61;99651.09;5140273;28;20057;-68
2022/03/02 12:01:58;;;;;;;23.65;11.25;;;;;;;9.77;36.70;99648.59;5141791;28;20065;-68
2022/03/02 12:05:06;;;;;;;15.15;7.90;;;;;;;9.41;35.79;99642.59;5156176;28;20056;-67
2022/03/02 12:08:02;;;;;;;23.33;12.57;;;;;;;9.73;34.28;99641.84;5161690;28;20145;-69
2022/03/02 12:10:54;;;;;;;19.83;11.02;;;;;;;9.41;36.20;99644.41;5161232;28;20058;-67
2022/03/02 12:14:03;;;;;;;18.45;10.00;;;;;;;9.76;35.75;99644.25;5161086;28;20053;-70
2022/03/02 12:16:54;;;;;;;20.25;10.02;;;;;;;10.09;36.53;99631.91;5140735;28;20425;-66
2022/03/02 12:19:46;;;;;;;14.85;9.70;;;;;;;9.70;35.26;99638.59;5161922;28;20065;-67
2022/03/02 12:22:43;;;;;;;16.95;10.20;;;;;;;8.73;36.34;99630.25;5160600;28;20061;-67
2022/03/02 12:25:44;;;;;;;14.88;9.95;;;;;;;8.22;37.10;99628.72;5160653;28;20567;-68
2022/03/02 12:28:34;;;;;;;19.77;9.48;;;;;;;9.41;35.56;99621.44;5161555;28;20117;-67
2022/03/02 12:31:31;;;;;;;19.60;10.00;;;;;;;9.33;36.28;99623.00;5161319;28;20125;-67
2022/03/02 12:34:22;;;;;;;17.33;9.98;;;;;;;9.12;36.05;99609.66;5140956;28;20059;-68
2022/03/02 12:37:13;;;;;;;21.45;10.02;;;;;;;9.32;36.23;99584.28;5141309;28;20066;-67
2022/03/02 12:40:09;;;;;;;16.63;9.32;;;;;;;9.40;36.04;99603.88;5142899;28;20519;-68
2022/03/02 12:43:00;;;;;;;26.67;10.15;;;;;;;9.54;37.29;99605.44;5145217;28;20124;-68
2022/03/02 12:45:51;;;;;;;13.93;9.18;;;;;;;9.06;37.06;99586.31;5148828;28;20509;-67
2022/03/02 12:48:42;;;;;;;22.50;10.88;;;;;;;8.57;39.94;99600.66;5159860;28;20068;-67
2022/03/02 12:51:55;;;;;;;22.67;11.73;;;;;;;8.18;42.44;99602.66;5145202;28;20058;-67
2022/03/02 12:54:47;;;;;;;29.58;12.52;;;;;;;9.02;41.58;99595.44;5144922;28;20676;-68
2022/03/02 12:57:39;;;;;;;25.05;11.82;;;;;;;8.32;42.68;99599.00;5144756;28;20051;-70
2022/03/02 13:00:29;;;;;;;22.90;12.07;;;;;;;8.31;41.88;99595.50;5144729;28;20528;-70
2022/03/02 13:03:26;;;;;;;24.75;12.68;;;;;;;8.88;41.69;99597.38;5160685;28;20580;-68
2022/03/02 13:06:27;;;;;;;23.00;12.15;;;;;;;8.82;41.66;99587.25;5163747;28;20539;-68
2022/03/02 13:09:22;;;;;;;23.55;12.35;;;;;;;9.46;40.44;99585.81;5155765;28;20053;-69
2022/03/02 13:12:29;;;;;;;24.00;12.23;;;;;;;9.17;40.74;99586.31;5164289;28;20793;-69
2022/03/02 13:15:33;;;;;;;22.70;11.55;;;;;;;9.27;41.88;99589.94;5164711;28;20050;-69
2022/03/02 13:18:23;;;;;;;23.48;12.25;;;;;;;9.35;40.84;99586.66;5164893;28;20686;-68
2022/03/02 13:21:18;;;;;;;21.67;12.15;;;;;;;9.04;41.58;99593.50;5164408;28;20080;-69